createdAt,value
2022-08-14T00:00:00.000Z,7.54
2022-08-14T00:15:00.000Z,7.54
2022-08-14T00:30:00.000Z,7.72
2022-08-14T00:45:00.000Z,7.47
2022-08-14T01:00:00.000Z,7.41
2022-08-14T01:15:00.000Z,7.74
2022-08-14T01:30:00.000Z,7.87
2022-08-14T01:45:00.000Z,7.41
2022-08-14T02:00:00.000Z,7.88
2022-08-14T02:15:00.000Z,8.15
2022-08-14T02:30:00.000Z,7.45
2022-08-14T02:45:00.000Z,7.86
2022-08-14T03:00:00.000Z,7.31
2022-08-14T03:15:00.000Z,7.76
2022-08-14T03:30:00.000Z,8.69
2022-08-14T03:45:00.000Z,8.79
2022-08-14T04:00:00.000Z,7.95
2022-08-14T04:15:00.000Z,8.54
2022-08-14T04:30:00.000Z,7.75
2022-08-14T04:45:00.000Z,7.74
2022-08-14T05:00:00.000Z,8.31
2022-08-14T05:15:00.000Z,7.51
2022-08-14T05:30:00.000Z,7.45
2022-08-14T05:45:00.000Z,7.4
2022-08-14T06:00:00.000Z,7.25
2022-08-14T06:15:00.000Z,7.19
2022-08-14T06:30:00.000Z,6.88
2022-08-14T06:45:00.000Z,6.85
2022-08-14T07:15:00.000Z,4
2022-08-14T07:15:00.000Z,4.51
2022-08-14T07:30:00.000Z,4.52
2022-08-14T07:45:00.000Z,4.33
2022-08-14T08:00:00.000Z,4.65
2022-08-14T08:15:00.000Z,4.26
2022-08-14T08:30:00.000Z,4.51
2022-08-14T08:45:00.000Z,4.44
2022-08-14T09:00:00.000Z,4.62
2022-08-14T09:15:00.000Z,5.61
2022-08-14T09:30:00.000Z,4.73
2022-08-14T09:45:00.000Z,5.51
2022-08-14T10:00:00.000Z,6.53
2022-08-14T10:15:00.000Z,6.61
2022-08-14T10:30:00.000Z,6.71
2022-08-14T10:45:00.000Z,8.05
2022-08-14T11:00:00.000Z,7.18
2022-08-14T11:15:00.000Z,7.33
2022-08-14T11:30:00.000Z,7.12
2022-08-14T11:45:00.000Z,7.18
2022-08-14T12:00:00.000Z,7.16
2022-08-14T12:15:00.000Z,7.29
2022-08-14T12:30:00.000Z,7.32
2022-08-14T12:45:00.000Z,7.4
2022-08-14T13:00:00.000Z,7.18
2022-08-14T13:15:00.000Z,7.32
2022-08-14T13:30:00.000Z,7.39
2022-08-14T13:45:00.000Z,7.28
2022-08-14T14:00:00.000Z,7.29
2022-08-14T14:15:00.000Z,7.47
2022-08-14T14:30:00.000Z,7.27
2022-08-14T14:45:00.000Z,7.28
2022-08-14T15:00:00.000Z,7.65
2022-08-14T15:15:00.000Z,8.06
2022-08-14T15:30:00.000Z,8.6
2022-08-14T15:45:00.000Z,9.53
2022-08-14T16:00:00.000Z,10.12
2022-08-14T16:15:00.000Z,10.31
2022-08-14T16:30:00.000Z,10.41
2022-08-14T16:45:00.000Z,10.65
2022-08-14T17:00:00.000Z,10.91
2022-08-14T17:15:00.000Z,10.47
2022-08-14T17:30:00.000Z,11.38
2022-08-14T17:45:00.000Z,11.54
2022-08-14T18:00:00.000Z,12.27
2022-08-14T18:15:00.000Z,12.49
2022-08-14T18:30:00.000Z,14.07
2022-08-14T18:45:00.000Z,14.86
2022-08-14T19:00:00.000Z,15.24
2022-08-14T19:15:00.000Z,15.74
2022-08-14T19:30:00.000Z,15.71
2022-08-14T19:45:00.000Z,16.21
2022-08-14T20:00:00.000Z,16.53
2022-08-14T20:15:00.000Z,16.35
2022-08-14T20:30:00.000Z,18.13
2022-08-14T20:45:00.000Z,18.11
2022-08-14T21:00:00.000Z,20.72
2022-08-14T21:15:00.000Z,18.22
2022-08-14T21:30:00.000Z,19.82
2022-08-14T21:45:00.000Z,20.16
2022-08-14T22:00:00.000Z,21.34
2022-08-14T22:15:00.000Z,22.11
2022-08-14T22:30:00.000Z,19.29
2022-08-14T22:45:00.000Z,19.48
2022-08-14T23:00:00.000Z,20.24
2022-08-14T23:15:00.000Z,17.21
2022-08-14T23:30:00.000Z,17.08
2022-08-14T23:45:00.000Z,18
